Time;durP1;ratioP1;P1;durP2;ratioP2;P2;SDS_P1;SDS_P2;PMS_P1;PMS_P2;Temp;Humidity;BMP_temperature;BMP_pressure;BME280_temperature;BME280_humidity;BME280_pressure;Samples;Min_cycle;Max_cycle;Signal;HPM_P1;HPM_P2
2022/04/14 00:02:54;;;;;;;10.90;4.78;;;;;;;13.26;76.14;99824.88;12181128;19;20066;-82
2022/04/14 00:06:55;;;;;;;11.77;4.97;;;;;;;13.23;76.58;99827.03;12199631;19;20010;-82
2022/04/14 00:10:57;;;;;;;11.15;5.07;;;;;;;13.18;77.15;99826.19;12186229;19;20074;-82
2022/04/14 00:15:00;;;;;;;12.27;5.23;;;;;;;13.13;77.91;99831.69;12200364;19;20014;-82
2022/04/14 00:19:02;;;;;;;12.68;5.15;;;;;;;13.08;78.15;99840.78;12200589;19;20014;-81
2022/04/14 00:23:04;;;;;;;12.52;5.78;;;;;;;13.05;78.63;99835.78;12178216;19;20022;-82
2022/04/14 00:27:06;;;;;;;13.47;6.07;;;;;;;13.02;79.03;99841.84;12200424;19;20111;-81
2022/04/14 00:31:08;;;;;;;18.02;5.75;;;;;;;13.01;79.97;99848.47;12200843;19;20026;-82
2022/04/14 00:35:10;;;;;;;16.85;6.40;;;;;;;12.98;80.17;99843.47;12178731;19;20014;-81
2022/04/14 00:39:11;;;;;;;19.70;6.70;;;;;;;12.93;80.85;99843.44;12198788;19;20090;-81
2022/04/14 00:43:13;;;;;;;16.77;6.88;;;;;;;12.91;81.38;99838.19;12202706;19;20003;-81
2022/04/14 00:47:16;;;;;;;13.32;6.82;;;;;;;12.89;81.80;99837.59;12184084;19;20026;-81
2022/04/14 00:51:19;;;;;;;14.88;7.75;;;;;;;12.86;82.31;99842.84;12207962;19;20018;-82
2022/04/14 00:55:20;;;;;;;17.63;7.47;;;;;;;12.85;82.74;99852.22;12183413;19;20014;-82
2022/04/14 00:59:22;;;;;;;15.00;7.45;;;;;;;12.82;83.13;99861.03;12187312;19;20034;-82
2022/04/14 01:03:25;;;;;;;15.05;7.72;;;;;;;12.77;83.54;99857.13;12202177;19;20424;-82
2022/04/14 01:07:28;;;;;;;13.35;8.65;;;;;;;12.74;84.32;99857.66;12201137;19;20029;-82
2022/04/14 01:11:31;;;;;;;15.88;8.32;;;;;;;12.71;84.69;99860.97;12177245;19;20018;-81
2022/04/14 01:15:32;;;;;;;17.27;9.33;;;;;;;12.70;85.14;99867.59;12194958;19;20455;-82
2022/04/14 01:19:35;;;;;;;15.63;8.02;;;;;;;12.66;84.99;99866.44;12209518;19;20176;-82
2022/04/14 01:23:44;;;;;;;15.23;8.02;;;;;;;12.62;85.63;99862.53;12181025;19;20027;-82
2022/04/14 01:27:45;;;;;;;22.23;8.48;;;;;;;12.57;85.92;99868.00;12192148;19;20015;-81
2022/04/14 01:31:51;;;;;;;14.55;9.15;;;;;;;12.53;86.44;99867.69;12202398;19;20476;-81
2022/04/14 01:35:53;;;;;;;15.25;8.20;;;;;;;12.49;86.55;99876.75;12169654;19;20073;-80
2022/04/14 01:39:55;;;;;;;20.95;9.85;;;;;;;12.44;87.19;99879.50;12203812;19;20200;-81
2022/04/14 01:43:57;;;;;;;14.77;8.82;;;;;;;12.40;87.28;99884.69;12171797;19;20082;-81
2022/04/14 01:47:59;;;;;;;16.63;9.23;;;;;;;12.35;87.88;99886.59;12198967;19;20045;-82
2022/04/14 01:52:01;;;;;;;;;;;;;;;12.30;88.49;99888.19;12201094;19;20842;-82
2022/04/14 01:56:09;;;;;;;17.02;9.05;;;;;;;12.27;88.01;99893.41;12179928;19;19914;-82
2022/04/14 02:00:13;;;;;;;19.02;10.75;;;;;;;12.22;88.50;99907.97;12193548;19;20010;-82
2022/04/14 02:09:18;;;;;;;22.20;10.75;;;;;;;12.12;89.87;99905.09;12196623;19;20014;-82
2022/04/14 02:13:43;;;;;;;18.15;9.98;;;;;;;12.07;89.76;99896.75;12195035;19;20025;-81
2022/04/14 02:17:45;;;;;;;20.88;11.13;;;;;;;12.06;90.28;99895.09;12174997;19;20101;-81
2022/04/14 02:21:46;;;;;;;21.23;10.77;;;;;;;12.04;90.57;99889.81;12197252;19;20067;-81
2022/04/14 02:25:48;;;;;;;16.77;11.00;;;;;;;12.02;91.37;99893.94;12199538;19;20011;-81
2022/04/14 02:29:50;;;;;;;21.05;11.65;;;;;;;12.01;91.32;99901.38;12177657;19;20011;-82
2022/04/14 02:33:52;;;;;;;18.88;10.88;;;;;;;11.98;91.81;99907.41;12199259;19;20023;-81
2022/04/14 02:37:55;;;;;;;23.83;12.77;;;;;;;11.97;91.95;99908.50;12193751;19;20014;-81
2022/04/14 02:41:56;;;;;;;18.17;11.65;;;;;;;11.94;92.31;99913.72;12168914;19;20027;-82
2022/04/14 02:45:59;;;;;;;22.00;12.23;;;;;;;11.91;92.85;99905.94;12216209;19;20353;-81
2022/04/14 02:50:03;;;;;;;24.88;10.82;;;;;;;11.89;92.87;99913.63;12232058;19;20011;-81
2022/04/14 02:54:05;;;;;;;22.40;12.52;;;;;;;11.89;93.06;99910.88;12251548;19;20082;-81
2022/04/14 02:58:06;;;;;;;19.58;11.75;;;;;;;11.85;93.44;99918.84;12252648;19;20011;-80
2022/04/14 03:02:08;;;;;;;18.92;10.55;;;;;;;11.82;93.67;99922.91;12228979;19;20029;-81
2022/04/14 03:06:10;;;;;;;20.92;10.32;;;;;;;11.78;94.24;99919.00;12242598;19;20398;-81
2022/04/14 03:10:11;;;;;;;15.65;10.60;;;;;;;11.78;94.56;99926.47;12254869;19;20014;-80
2022/04/14 03:14:13;;;;;;;20.10;10.88;;;;;;;11.79;95.02;99930.88;12234086;19;20015;-80
2022/04/14 03:18:18;;;;;;;21.85;11.93;;;;;;;11.81;95.09;99926.78;12258289;19;20018;-81
2022/04/14 03:22:19;;;;;;;19.95;11.50;;;;;;;11.84;95.76;99929.03;12238369;19;20003;-81
2022/04/14 03:26:21;;;;;;;18.90;10.88;;;;;;;11.88;95.71;99929.38;12188322;19;20007;-82
2022/04/14 03:30:23;;;;;;;20.75;10.80;;;;;;;11.93;95.66;99928.59;12216573;19;20006;-81
2022/04/14 03:34:25;;;;;;;21.00;10.43;;;;;;;11.99;96.06;99920.13;12204297;19;20456;-81
2022/04/14 03:38:26;;;;;;;23.38;12.02;;;;;;;12.07;97.32;99933.47;12190967;19;20002;-82
2022/04/14 03:42:36;;;;;;;24.70;11.82;;;;;;;12.16;96.21;99925.56;12203680;19;20015;-81
2022/04/14 03:46:38;;;;;;;17.38;11.35;;;;;;;12.20;95.93;99928.69;12211094;19;20461;-81
2022/04/14 03:50:40;;;;;;;20.17;10.25;;;;;;;12.22;95.74;99934.75;12191177;19;20007;-81
2022/04/14 03:54:41;;;;;;;17.80;10.50;;;;;;;12.22;95.69;99937.53;12202013;19;20014;-81
2022/04/14 03:58:43;;;;;;;18.75;11.98;;;;;;;12.19;95.95;99935.28;12202586;19;20113;-81
2022/04/14 04:02:45;;;;;;;21.73;12.90;;;;;;;12.15;95.97;99932.19;12193276;19;20019;-81
2022/04/14 04:06:46;;;;;;;21.50;12.18;;;;;;;12.14;96.04;99935.25;12202656;19;20015;-81
2022/04/14 04:10:48;;;;;;;21.23;11.75;;;;;;;12.15;97.36;99934.97;12211665;19;20113;-81
2022/04/14 04:14:50;;;;;;;20.52;12.48;;;;;;;12.21;96.63;99947.75;12180507;19;20010;-81
2022/04/14 04:18:51;;;;;;;24.17;12.93;;;;;;;12.25;96.40;99948.06;12201648;19;20031;-81
2022/04/14 04:22:53;;;;;;;22.65;13.52;;;;;;;12.29;96.13;99954.75;12200401;19;20082;-81
2022/04/14 04:26:55;;;;;;;26.48;12.43;;;;;;;12.35;95.86;99958.44;12184063;19;20078;-81
2022/04/14 04:30:57;;;;;;;22.52;12.90;;;;;;;12.38;95.79;99968.97;12202822;19;20010;-81
2022/04/14 04:35:03;;;;;;;23.05;14.40;;;;;;;12.42;95.81;99967.34;12182701;19;20010;-80
2022/04/14 04:39:04;;;;;;;27.73;12.10;;;;;;;12.45;95.79;99975.94;12200731;19;20512;-81
2022/04/14 04:43:06;;;;;;;20.83;12.60;;;;;;;12.49;95.88;99979.03;12197791;19;20483;-80
2022/04/14 04:47:08;;;;;;;28.13;14.32;;;;;;;12.53;96.06;99981.03;12177801;19;20038;-81
2022/04/14 04:51:09;;;;;;;27.40;13.23;;;;;;;12.56;96.04;99984.38;12210988;19;20015;-81
2022/04/14 04:55:11;;;;;;;25.48;13.15;;;;;;;12.61;96.05;99981.66;12204710;19;20471;-81
2022/04/14 04:59:13;;;;;;;22.00;13.40;;;;;;;12.66;96.04;99984.47;12185924;19;20434;-81
2022/04/14 05:03:15;;;;;;;28.95;15.70;;;;;;;12.71;96.08;99987.31;12199200;19;20476;-82
2022/04/14 05:07:21;;;;;;;27.00;15.10;;;;;;;12.75;97.61;99997.56;12200871;19;20464;-82
2022/04/14 05:11:23;;;;;;;21.60;14.02;;;;;;;12.84;97.19;99992.41;12184865;19;20010;-81
2022/04/14 05:15:25;;;;;;;26.08;15.27;;;;;;;12.94;97.01;99997.25;12193616;19;20010;-81
2022/04/14 05:19:26;;;;;;;27.92;15.23;;;;;;;13.04;96.93;99994.56;12207458;19;20070;-82
2022/04/14 05:23:28;;;;;;;33.17;17.52;;;;;;;13.13;96.24;100006.00;12179023;19;20014;-81
2022/04/14 05:27:30;;;;;;;26.35;17.20;;;;;;;13.16;96.79;100011.84;12192875;19;20027;-82
2022/04/14 05:31:39;;;;;;;28.58;16.90;;;;;;;13.23;96.30;100012.44;12196903;19;20074;-82
2022/04/14 05:35:43;;;;;;;31.23;17.67;;;;;;;13.30;96.48;100020.59;12176754;19;20240;-82
2022/04/14 05:39:46;;;;;;;33.08;17.75;;;;;;;13.38;96.59;100024.78;12196591;19;20020;-82
2022/04/14 05:43:48;;;;;;;27.92;17.10;;;;;;;13.48;96.13;100024.06;12192610;19;20027;-83
2022/04/14 05:47:50;;;;;;;31.20;18.98;;;;;;;13.60;95.22;100024.72;12182351;19;20023;-82
2022/04/14 05:51:52;;;;;;;36.50;18.73;;;;;;;13.68;95.01;100032.50;12203571;19;20014;-82
2022/04/14 05:55:54;;;;;;;33.92;19.85;;;;;;;13.76;94.73;100029.25;12180734;19;20464;-82
2022/04/14 05:59:57;;;;;;;33.13;18.17;;;;;;;13.85;94.34;100027.66;12181785;19;20014;-82
2022/04/14 06:04:02;;;;;;;34.67;18.90;;;;;;;13.90;93.52;100033.25;12199615;19;20006;-83
2022/04/14 06:08:04;;;;;;;29.67;17.38;;;;;;;14.00;93.20;100034.41;12174285;19;20450;-82
2022/04/14 06:12:07;;;;;;;30.83;18.00;;;;;;;14.04;92.96;100035.53;12198669;19;20115;-82
2022/04/14 06:16:22;;;;;;;27.58;16.98;;;;;;;14.08;92.26;100023.66;12199596;19;20018;-84
2022/04/14 06:20:25;;;;;;;31.30;16.65;;;;;;;14.18;92.01;100020.09;12170779;19;20057;-82
2022/04/14 06:24:27;;;;;;;29.90;17.20;;;;;;;14.29;91.54;100032.09;12186461;19;20025;-82
2022/04/14 06:28:31;;;;;;;35.80;18.27;;;;;;;14.49;90.30;100026.66;12178163;19;20050;-81
2022/04/14 06:32:33;;;;;;;33.13;18.52;;;;;;;14.67;89.38;100032.84;12177681;19;20006;-82
2022/04/14 06:36:35;;;;;;;30.97;17.83;;;;;;;14.84;88.30;100029.84;12200512;19;20002;-81
2022/04/14 06:40:36;;;;;;;29.08;17.67;;;;;;;15.08;87.17;100032.97;12201516;19;20503;-82
2022/04/14 06:44:38;;;;;;;32.75;18.05;;;;;;;15.23;86.38;100027.47;12173027;19;20049;-82
2022/04/14 06:48:40;;;;;;;30.30;17.85;;;;;;;15.55;85.74;100031.91;12208534;19;20011;-82
2022/04/14 06:52:42;;;;;;;28.20;17.25;;;;;;;15.59;83.72;100027.50;12218245;19;20018;-83
2022/04/14 06:56:44;;;;;;;25.73;16.90;;;;;;;15.62;83.07;100030.53;12185452;19;20010;-82
2022/04/14 07:00:46;;;;;;;28.48;17.70;;;;;;;15.80;82.83;100031.94;12208142;19;20489;-84
2022/04/14 07:04:48;;;;;;;29.10;16.43;;;;;;;15.72;82.68;100040.84;12216463;19;20015;-83
2022/04/14 07:08:50;;;;;;;28.95;17.27;;;;;;;15.80;82.37;100050.56;12175254;19;20014;-82
2022/04/14 07:12:52;;;;;;;27.52;17.17;;;;;;;15.94;82.04;100044.16;12208767;19;20444;-82
2022/04/14 07:16:54;;;;;;;23.93;15.00;;;;;;;16.12;81.79;100051.09;12191180;19;20396;-82
2022/04/14 07:20:56;;;;;;;27.63;15.75;;;;;;;16.36;80.78;100042.97;12179381;19;20009;-82
2022/04/14 07:24:59;;;;;;;27.67;15.95;;;;;;;16.45;80.15;100045.13;12190064;19;20018;-82
2022/04/14 07:29:01;;;;;;;;;;;;;;;16.63;79.36;100055.66;12175213;19;20030;-82
2022/04/14 07:33:05;;;;;;;28.45;15.45;;;;;;;16.72;78.71;100056.75;12206803;19;19911;-82
2022/04/14 07:37:07;;;;;;;27.55;16.52;;;;;;;16.68;77.93;100063.16;12205848;19;20007;-83
2022/04/14 07:41:08;;;;;;;29.17;16.73;;;;;;;16.83;77.97;100061.16;12185944;19;20041;-83
2022/04/14 07:45:11;;;;;;;29.55;17.58;;;;;;;16.77;77.37;100069.81;12206524;19;20031;-82
2022/04/14 07:49:13;;;;;;;30.00;16.80;;;;;;;17.00;76.18;100076.69;12208386;19;20070;-83
2022/04/14 07:53:15;;;;;;;27.48;17.05;;;;;;;17.20;75.67;100084.09;12179801;19;20131;-82
2022/04/14 07:57:19;;;;;;;26.65;16.73;;;;;;;17.39;74.75;100084.25;12202194;19;20017;-82
2022/04/14 08:01:21;;;;;;;25.88;17.25;;;;;;;17.31;74.18;100089.31;12211235;19;20011;-80
2022/04/14 08:05:49;;;;;;;26.80;16.13;;;;;;;17.59;73.51;100089.69;12189488;19;20037;-81
2022/04/14 08:09:54;;;;;;;27.50;16.00;;;;;;;17.75;72.13;100098.75;12202039;19;20255;-83
2022/04/14 08:14:16;;;;;;;28.00;16.60;;;;;;;17.80;71.74;100100.72;12184621;19;20621;-84
2022/04/14 08:18:25;;;;;;;24.90;16.80;;;;;;;17.60;72.06;100105.28;12214191;19;20017;-82
2022/04/14 08:22:28;;;;;;;27.13;16.13;;;;;;;17.51;71.87;100099.47;12218817;19;20015;-84
2022/04/14 08:26:48;;;;;;;28.15;16.95;;;;;;;17.64;71.74;100113.88;12185144;19;20011;-83
2022/04/14 08:30:54;;;;;;;26.45;15.18;;;;;;;17.65;71.23;100121.97;12207400;19;20007;-82
2022/04/14 08:34:57;;;;;;;24.70;15.25;;;;;;;17.70;71.22;100127.50;12181007;19;22108;-83
2022/04/14 08:39:01;;;;;;;26.27;16.17;;;;;;;17.63;69.97;100134.53;12203522;19;20034;-81
2022/04/14 08:43:06;;;;;;;31.08;17.48;;;;;;;17.33;71.38;100130.81;12207274;19;20034;-82
2022/04/14 08:47:08;;;;;;;29.85;15.57;;;;;;;17.29;72.18;100130.53;12180551;19;20015;-82
2022/04/14 08:51:14;;;;;;;21.45;14.38;;;;;;;17.34;72.19;100126.91;12203425;19;20011;-82
2022/04/14 08:55:16;;;;;;;23.83;15.07;;;;;;;17.50;71.53;100128.47;12210337;19;20033;-81
2022/04/14 08:59:18;;;;;;;28.57;16.10;;;;;;;17.47;70.96;100131.84;12185554;19;20018;-82
2022/04/14 09:03:20;;;;;;;23.07;13.93;;;;;;;17.60;70.44;100140.66;12214210;19;20246;-85
2022/04/14 09:07:22;;;;;;;21.20;14.17;;;;;;;17.60;70.48;100144.28;12208318;19;20093;-82
2022/04/14 09:11:30;;;;;;;23.20;14.48;;;;;;;17.68;70.20;100154.81;12192938;19;20050;-82
2022/04/14 09:15:33;;;;;;;23.65;13.23;;;;;;;17.69;69.55;100145.34;12208036;19;21043;-82
2022/04/14 09:19:37;;;;;;;24.75;14.13;;;;;;;17.60;68.93;100152.66;12214091;19;20003;-82
2022/04/14 09:23:39;;;;;;;20.58;12.50;;;;;;;17.80;68.57;100159.25;12193378;19;20007;-85
2022/04/14 09:27:41;;;;;;;24.15;13.55;;;;;;;17.86;67.42;100158.91;12205070;19;20367;-82
2022/04/14 09:31:50;;;;;;;32.42;13.80;;;;;;;18.18;67.22;100157.56;12213857;19;20021;-83
2022/04/14 09:36:14;;;;;;;22.67;12.55;;;;;;;18.60;64.54;100144.88;12191987;19;20011;-83
2022/04/14 09:40:15;;;;;;;23.73;11.48;;;;;;;19.31;63.90;100155.25;12199226;19;20567;-83
2022/04/14 09:44:23;;;;;;;18.13;11.20;;;;;;;19.62;61.24;100153.97;12186689;19;20023;-84
2022/04/14 09:48:26;;;;;;;20.70;11.90;;;;;;;19.56;61.65;100150.41;12201978;19;20020;-84
2022/04/14 09:52:29;;;;;;;17.67;11.05;;;;;;;19.23;60.95;100146.69;12211226;19;20014;-83
2022/04/14 09:56:54;;;;;;;19.10;11.07;;;;;;;18.99;61.43;100150.34;12182782;19;20013;-81
2022/04/14 10:00:58;;;;;;;17.33;10.38;;;;;;;18.86;62.35;100153.84;12207085;19;20019;-81
2022/04/14 10:05:00;;;;;;;16.30;10.02;;;;;;;19.26;61.74;100152.50;12186821;19;20006;-80
2022/04/14 10:09:02;;;;;;;16.37;10.87;;;;;;;19.63;60.54;100152.84;12205829;19;20491;-83
2022/04/14 10:13:06;;;;;;;22.43;13.10;;;;;;;19.81;59.21;100152.06;12200381;19;20007;-79
2022/04/14 10:17:10;;;;;;;19.48;10.27;;;;;;;19.62;57.71;100149.22;12176069;19;20010;-80
2022/04/14 10:21:12;;;;;;;15.57;9.70;;;;;;;19.98;58.84;100154.28;12207990;19;20014;-80
2022/04/14 10:25:15;;;;;;;18.00;9.63;;;;;;;20.49;57.67;100148.66;12195395;19;20010;-81
2022/04/14 10:29:18;;;;;;;17.58;9.32;;;;;;;20.45;56.76;100155.19;12187205;19;20035;-81
2022/04/14 10:33:20;;;;;;;13.25;7.50;;;;;;;20.49;56.63;100157.06;12212107;19;20036;-81
2022/04/14 10:37:30;;;;;;;11.38;6.90;;;;;;;20.53;54.36;100162.06;12199609;19;20042;-81
2022/04/14 10:41:38;;;;;;;13.35;6.85;;;;;;;20.83;54.54;100153.09;12168317;19;20011;-81
2022/04/14 10:45:49;;;;;;;8.52;5.40;;;;;;;21.18;51.71;100159.13;12198946;19;20027;-82
2022/04/14 10:49:51;;;;;;;9.95;5.18;;;;;;;21.32;51.50;100151.50;12199741;19;20033;-79
2022/04/14 10:54:11;;;;;;;6.50;3.50;;;;;;;21.80;51.22;100152.97;12168177;19;20017;-80
2022/04/14 10:58:40;;;;;;;7.65;3.35;;;;;;;22.06;49.58;100139.19;12202517;19;20067;-82
2022/04/14 11:03:07;;;;;;;4.97;3.08;;;;;;;22.40;48.26;100147.06;12169250;19;20022;-80
2022/04/14 11:07:10;;;;;;;7.78;3.30;;;;;;;21.95;47.80;100137.75;12195873;19;20014;-80
2022/04/14 11:11:14;;;;;;;6.70;3.35;;;;;;;21.55;49.14;100155.25;12192590;19;20007;-79
2022/04/14 11:15:30;;;;;;;6.15;2.47;;;;;;;21.15;50.00;100145.72;12212359;19;20026;-80
2022/04/14 11:19:32;;;;;;;6.63;2.88;;;;;;;21.04;49.61;100149.88;12231044;19;20010;-81
2022/04/14 11:23:35;;;;;;;6.53;2.10;;;;;;;20.51;51.05;100150.31;12189128;19;20006;-80
2022/04/14 11:27:39;;;;;;;9.88;2.22;;;;;;;20.77;50.59;100157.13;12219108;19;20586;-80
2022/04/14 11:31:45;;;;;;;8.27;2.35;;;;;;;20.82;50.79;100151.44;12219026;19;20039;-77
2022/04/14 11:35:48;;;;;;;4.85;2.75;;;;;;;21.37;49.81;100150.59;12181419;19;20014;-79
2022/04/14 11:40:09;;;;;;;3.35;2.10;;;;;;;21.89;48.60;100147.44;12204241;19;20341;-79
2022/04/14 11:44:14;;;;;;;6.03;2.30;;;;;;;21.70;49.75;100145.66;12195762;19;20112;-79
2022/04/14 11:48:18;;;;;;;7.22;2.63;;;;;;;21.32;50.49;100143.09;12203941;19;20007;-81
2022/04/14 11:52:24;;;;;;;7.15;2.00;;;;;;;20.94;51.06;100146.16;12216623;19;20010;-80
2022/04/14 11:56:33;;;;;;;6.38;1.45;;;;;;;20.72;51.11;100137.63;12183453;19;20016;-80
2022/04/14 12:00:46;;;;;;;3.05;1.35;;;;;;;21.06;50.34;100137.22;12213656;19;20022;-82
2022/04/14 12:04:53;;;;;;;4.70;1.38;;;;;;;21.63;49.40;100138.84;12215393;19;20074;-78
2022/04/14 12:08:56;;;;;;;4.38;1.20;;;;;;;22.07;47.62;100127.66;12186807;19;20014;-80
2022/04/14 12:13:08;;;;;;;0.85;0.60;;;;;;;22.01;46.23;100140.16;12207716;19;20752;-80
2022/04/14 12:17:10;;;;;;;;;;;;;;;22.58;45.70;100136.75;12178860;19;20030;-78
2022/04/14 12:21:18;;;;;;;4.50;1.00;;;;;;;23.15;44.53;100144.44;12210435;19;19919;-78
2022/04/14 12:25:20;;;;;;;2.30;1.10;;;;;;;22.72;45.55;100129.03;12201987;19;20014;-78
2022/04/14 12:29:24;;;;;;;3.25;1.00;;;;;;;23.04;44.99;100141.09;12187891;19;20062;-78
2022/04/14 12:33:27;;;;;;;1.92;0.95;;;;;;;23.17;45.26;100134.53;12209334;19;20033;-78
2022/04/14 12:37:37;;;;;;;4.28;1.20;;;;;;;23.17;44.33;100142.97;12203630;19;20350;-79
2022/04/14 12:41:39;;;;;;;2.85;1.00;;;;;;;23.42;44.41;100132.09;12171600;19;20030;-81
2022/04/14 12:45:41;;;;;;;5.17;1.30;;;;;;;23.56;42.43;100120.72;12198313;19;20011;-80
2022/04/14 12:49:42;;;;;;;1.50;1.00;;;;;;;23.67;43.57;100131.28;12209685;19;20650;-81
2022/04/14 12:53:53;;;;;;;2.23;0.80;;;;;;;23.57;41.97;100134.44;12201556;19;20038;-81
2022/04/14 12:58:15;;;;;;;2.05;0.90;;;;;;;22.88;41.68;100129.44;12208865;19;20026;-80
2022/04/14 13:02:23;;;;;;;2.60;0.93;;;;;;;22.37;42.59;100128.03;12185870;19;20022;-80
2022/04/14 13:06:25;;;;;;;11.77;1.33;;;;;;;22.05;43.30;100129.09;12196102;19;20417;-82
2022/04/14 13:10:31;;;;;;;3.88;1.05;;;;;;;21.91;43.48;100128.34;12206297;19;20028;-79
2022/04/14 13:14:34;;;;;;;6.60;2.20;;;;;;;21.60;44.34;100129.06;12175740;19;20017;-81
2022/04/14 13:18:55;;;;;;;5.38;2.50;;;;;;;21.38;45.23;100115.81;12211441;19;20375;-80
2022/04/14 13:22:57;;;;;;;4.00;2.43;;;;;;;21.58;45.28;100114.53;12192528;19;20014;-80
2022/04/14 13:26:58;;;;;;;4.00;2.60;;;;;;;21.93;45.25;100120.44;12199656;19;20483;-80
2022/04/14 13:31:01;;;;;;;4.13;2.60;;;;;;;22.13;44.87;100119.06;12201545;19;20010;-80
2022/04/14 13:35:03;;;;;;;9.32;3.72;;;;;;;22.31;44.98;100115.28;12182408;19;20019;-80
2022/04/14 13:39:05;;;;;;;;;;;;;;;22.05;44.87;100115.09;12203967;19;20320;-81
2022/04/14 13:43:07;;;;;;;6.95;3.35;;;;;;;22.06;45.10;100119.53;12198118;19;19947;-81
2022/04/14 13:47:10;;;;;;;8.07;3.70;;;;;;;21.83;45.95;100110.28;12176872;19;20006;-79
2022/04/14 13:51:13;;;;;;;;;;;;;;;21.89;45.95;100108.19;12191835;19;20039;-80
2022/04/14 13:55:20;;;;;;;6.95;3.50;;;;;;;21.98;46.44;100111.88;12196309;19;20252;-80
2022/04/14 13:59:22;;;;;;;7.38;3.55;;;;;;;22.24;46.29;100123.31;12181815;19;20527;-80
2022/04/14 14:03:24;;;;;;;8.07;3.73;;;;;;;22.11;45.73;100127.00;12209678;19;20021;-79
2022/04/14 14:07:27;;;;;;;6.90;3.67;;;;;;;21.77;47.22;100132.03;12205729;19;20633;-81
2022/04/14 14:11:30;;;;;;;8.82;4.00;;;;;;;21.76;46.86;100129.53;12201913;19;20010;-78
2022/04/14 14:15:31;;;;;;;7.43;4.63;;;;;;;21.92;46.58;100129.97;12191959;19;20070;-80
2022/04/14 14:19:33;;;;;;;9.40;4.20;;;;;;;22.08;46.69;100131.28;12207614;19;20494;-81
2022/04/14 14:23:36;;;;;;;6.45;4.47;;;;;;;22.02;46.30;100135.34;12185205;19;20527;-79
2022/04/14 14:27:39;;;;;;;14.10;4.28;;;;;;;22.05;46.40;100141.16;12196902;19;20091;-78
2022/04/14 14:31:45;;;;;;;;;;;;;;;22.26;46.37;100141.50;12206843;19;20417;-80
2022/04/14 14:35:47;;;;;;;8.75;4.35;;;;;;;22.26;46.08;100140.69;12175904;19;19919;-80
2022/04/14 14:39:49;;;;;;;5.63;4.13;;;;;;;22.38;45.76;100145.72;12198661;19;20003;-80
2022/04/14 14:43:51;;;;;;;7.90;4.10;;;;;;;22.34;46.11;100148.34;12204845;19;20067;-78
2022/04/14 14:47:53;;;;;;;;;;;;;;;22.69;45.77;100152.16;12192997;19;20022;-81
2022/04/14 14:51:56;;;;;;;5.45;4.00;;;;;;;22.72;45.86;100151.50;12214734;19;19925;-82
2022/04/14 14:55:57;;;;;;;6.85;3.15;;;;;;;22.81;45.29;100156.34;12195359;19;20023;-80
2022/04/14 14:59:59;;;;;;;6.57;3.33;;;;;;;23.40;44.44;100154.91;12208295;19;20546;-79
2022/04/14 15:04:01;;;;;;;5.03;3.50;;;;;;;23.74;44.09;100149.72;12217106;19;20010;-80
2022/04/14 15:08:05;;;;;;;6.88;4.00;;;;;;;23.85;42.86;100153.84;12192673;19;20023;-80
2022/04/14 15:12:07;;;;;;;5.28;3.03;;;;;;;23.54;44.00;100157.59;12211677;19;20360;-79
2022/04/14 15:16:09;;;;;;;8.57;3.78;;;;;;;23.49;43.41;100162.53;12212005;19;20067;-80
2022/04/14 15:20:10;;;;;;;6.20;2.85;;;;;;;22.79;44.84;100158.66;12183718;19;20452;-80
2022/04/14 15:24:12;;;;;;;6.13;3.60;;;;;;;21.95;46.16;100157.41;12209957;19;20098;-84
2022/04/14 15:28:14;;;;;;;6.90;3.67;;;;;;;21.56;46.89;100156.88;12202488;19;20015;-81
2022/04/14 15:32:16;;;;;;;6.93;3.47;;;;;;;21.19;47.80;100162.75;12181998;19;20433;-80
2022/04/14 15:36:20;;;;;;;6.47;3.30;;;;;;;21.31;47.98;100158.25;12195793;19;20078;-80
2022/04/14 15:40:26;;;;;;;5.95;3.30;;;;;;;21.23;48.33;100153.38;12227097;19;20031;-82
2022/04/14 15:44:29;;;;;;;6.53;3.30;;;;;;;21.06;49.10;100164.38;12184009;19;20014;-82
2022/04/14 15:48:32;;;;;;;5.57;3.45;;;;;;;21.03;48.65;100167.81;12207199;19;20772;-81
2022/04/14 15:52:35;;;;;;;6.88;3.55;;;;;;;20.98;48.43;100160.34;12207010;19;20013;-81
2022/04/14 15:56:37;;;;;;;7.35;3.40;;;;;;;20.77;48.85;100168.34;12182215;19;20011;-82
2022/04/14 16:00:38;;;;;;;8.38;3.50;;;;;;;20.33;50.19;100182.81;12208129;19;20370;-80
2022/04/14 16:04:41;;;;;;;6.73;3.20;;;;;;;20.00;49.69;100180.81;12203909;19;20511;-80
2022/04/14 16:08:43;;;;;;;8.32;3.08;;;;;;;19.78;50.58;100186.19;12178032;19;20007;-80
2022/04/14 16:12:45;;;;;;;7.32;2.65;;;;;;;19.64;51.38;100186.09;12201104;19;20007;-78
2022/04/14 16:16:47;;;;;;;5.30;2.75;;;;;;;19.54;51.23;100192.66;12200495;19;20404;-79
2022/04/14 16:20:48;;;;;;;5.57;2.33;;;;;;;19.47;52.60;100191.34;12180534;19;20006;-79
2022/04/14 16:24:50;;;;;;;6.35;2.78;;;;;;;19.27;52.76;100192.44;12197820;19;20392;-80
2022/04/14 16:28:54;;;;;;;5.63;2.50;;;;;;;19.05;53.23;100184.63;12204956;19;20406;-79
2022/04/14 16:32:56;;;;;;;4.47;1.92;;;;;;;18.94;54.09;100192.28;12179036;19;20019;-80
2022/04/14 16:37:00;;;;;;;3.95;2.63;;;;;;;18.88;54.49;100190.66;12201799;19;20695;-80
2022/04/14 16:41:05;;;;;;;5.45;2.80;;;;;;;18.66;54.84;100183.59;12176395;19;20011;-80
2022/04/14 16:45:09;;;;;;;6.72;2.60;;;;;;;18.64;54.49;100188.63;12204749;19;20449;-81
2022/04/14 16:49:11;;;;;;;5.70;2.97;;;;;;;18.57;54.97;100192.91;12196811;19;20006;-81
2022/04/14 16:53:13;;;;;;;4.32;2.17;;;;;;;18.49;54.91;100194.38;12178331;19;20074;-81
2022/04/14 16:57:28;;;;;;;6.40;2.05;;;;;;;18.53;56.04;100189.03;12206748;19;20038;-81
2022/04/14 17:01:41;;;;;;;4.22;2.10;;;;;;;18.54;55.32;100185.13;12202841;19;20065;-80
2022/04/14 17:05:51;;;;;;;2.35;1.40;;;;;;;18.60;54.83;100182.00;12180541;19;20018;-78
2022/04/14 17:09:52;;;;;;;6.40;1.85;;;;;;;18.53;54.71;100189.03;12199371;19;20014;-79
2022/04/14 17:13:54;;;;;;;3.80;1.48;;;;;;;18.47;55.24;100184.63;12200934;19;20010;-80
2022/04/14 17:17:56;;;;;;;4.30;2.10;;;;;;;18.36;55.05;100189.50;12186643;19;20364;-79
2022/04/14 17:26:20;;;;;;;3.97;1.52;;;;;;;18.24;55.65;100189.03;12180207;19;20011;-79
2022/04/14 17:30:22;;;;;;;3.65;1.20;;;;;;;18.15;56.57;100197.19;12196887;19;20014;-78
2022/04/14 17:34:27;;;;;;;3.97;1.42;;;;;;;18.04;56.61;100192.81;12201189;19;20014;-79
2022/04/14 17:38:28;;;;;;;5.80;1.77;;;;;;;17.95;57.08;100201.78;12173268;19;20014;-78
2022/04/14 17:42:34;;;;;;;2.90;1.77;;;;;;;17.87;58.37;100199.59;12194623;19;20364;-79
2022/04/14 17:46:36;;;;;;;4.40;1.60;;;;;;;17.74;59.69;100205.81;12196059;19;20570;-79
2022/04/14 17:50:39;;;;;;;3.92;1.27;;;;;;;17.61;60.77;100221.22;12179442;19;20015;-79
2022/04/14 17:54:41;;;;;;;2.55;1.48;;;;;;;17.46;61.46;100210.13;12189009;19;20022;-79
2022/04/14 17:58:42;;;;;;;5.32;1.88;;;;;;;17.35;61.58;100225.22;12193428;19;20019;-79
2022/04/14 18:02:47;;;;;;;3.67;1.80;;;;;;;17.21;62.79;100228.59;12178600;19;20022;-79
2022/04/14 18:06:48;;;;;;;6.47;1.95;;;;;;;17.09;63.75;100231.69;12190019;19;20010;-79
2022/04/14 18:10:50;;;;;;;2.35;1.63;;;;;;;16.97;64.22;100228.41;12199064;19;20011;-79
2022/04/14 18:14:54;;;;;;;3.83;1.55;;;;;;;16.89;64.77;100233.72;12176757;19;20492;-78
2022/04/14 18:18:56;;;;;;;2.40;1.60;;;;;;;16.78;65.09;100238.47;12193564;19;20010;-79
2022/04/14 18:22:58;;;;;;;6.50;4.07;;;;;;;16.69;65.17;100229.00;12173046;19;20014;-79
2022/04/14 18:27:01;;;;;;;6.88;3.33;;;;;;;16.57;65.89;100238.47;12200844;19;19998;-78
2022/04/14 18:31:03;;;;;;;4.47;1.50;;;;;;;16.48;65.96;100233.72;12199341;19;20011;-79
2022/04/14 18:35:05;;;;;;;3.53;1.58;;;;;;;16.38;66.37;100240.94;12175007;19;20015;-78
2022/04/14 18:39:08;;;;;;;3.10;1.60;;;;;;;16.31;65.65;100240.41;12193891;19;20011;-78
2022/04/14 18:43:10;;;;;;;3.25;1.75;;;;;;;16.27;65.83;100238.44;12195582;19;20002;-78